sensor_id;sensor_type;location;lat;lon;timestamp;P1;durP1;ratioP1;P2;durP2;ratioP2
18503;SDS011;9381;54.244;10.074;2022-08-07T00:04:29;7.10;;;5.15;;
18503;SDS011;9381;54.244;10.074;2022-08-07T00:09:29;7.00;;;4.85;;
18503;SDS011;9381;54.244;10.074;2022-08-07T00:14:29;6.97;;;5.03;;
18503;SDS011;9381;54.244;10.074;2022-08-07T00:19:30;8.73;;;5.47;;
18503;SDS011;9381;54.244;10.074;2022-08-07T00:24:31;8.77;;;5.20;;
18503;SDS011;9381;54.244;10.074;2022-08-07T00:29:31;7.93;;;5.38;;
18503;SDS011;9381;54.244;10.074;2022-08-07T00:34:32;7.67;;;5.17;;
18503;SDS011;9381;54.244;10.074;2022-08-07T00:39:33;7.70;;;5.33;;
18503;SDS011;9381;54.244;10.074;2022-08-07T00:44:34;9.30;;;4.90;;
18503;SDS011;9381;54.244;10.074;2022-08-07T00:49:36;5.83;;;5.23;;
18503;SDS011;9381;54.244;10.074;2022-08-07T00:54:36;7.10;;;5.63;;
18503;SDS011;9381;54.244;10.074;2022-08-07T00:59:36;6.53;;;5.00;;
18503;SDS011;9381;54.244;10.074;2022-08-07T01:04:37;9.30;;;5.60;;
18503;SDS011;9381;54.244;10.074;2022-08-07T01:09:38;7.23;;;5.40;;
18503;SDS011;9381;54.244;10.074;2022-08-07T01:14:40;8.40;;;5.87;;
18503;SDS011;9381;54.244;10.074;2022-08-07T01:19:40;6.57;;;5.10;;
18503;SDS011;9381;54.244;10.074;2022-08-07T01:24:42;6.97;;;5.00;;
18503;SDS011;9381;54.244;10.074;2022-08-07T01:29:43;7.87;;;5.80;;
18503;SDS011;9381;54.244;10.074;2022-08-07T01:34:44;6.87;;;5.60;;
18503;SDS011;9381;54.244;10.074;2022-08-07T01:39:44;6.93;;;5.17;;
18503;SDS011;9381;54.244;10.074;2022-08-07T01:44:46;7.20;;;5.00;;
18503;SDS011;9381;54.244;10.074;2022-08-07T01:49:46;7.80;;;5.73;;
18503;SDS011;9381;54.244;10.074;2022-08-07T01:54:47;8.53;;;5.63;;
18503;SDS011;9381;54.244;10.074;2022-08-07T02:00:02;9.03;;;6.57;;
18503;SDS011;9381;54.244;10.074;2022-08-07T02:05:06;9.87;;;6.00;;
18503;SDS011;9381;54.244;10.074;2022-08-07T02:10:09;11.00;;;6.87;;
18503;SDS011;9381;54.244;10.074;2022-08-07T02:15:10;7.53;;;5.63;;
18503;SDS011;9381;54.244;10.074;2022-08-07T02:20:12;11.00;;;6.93;;
18503;SDS011;9381;54.244;10.074;2022-08-07T02:25:14;9.93;;;7.63;;
18503;SDS011;9381;54.244;10.074;2022-08-07T02:30:16;10.13;;;7.37;;
18503;SDS011;9381;54.244;10.074;2022-08-07T02:35:17;11.37;;;7.20;;
18503;SDS011;9381;54.244;10.074;2022-08-07T02:40:18;10.27;;;7.67;;
18503;SDS011;9381;54.244;10.074;2022-08-07T02:45:19;12.02;;;8.32;;
18503;SDS011;9381;54.244;10.074;2022-08-07T02:50:22;10.37;;;7.90;;
18503;SDS011;9381;54.244;10.074;2022-08-07T02:55:24;10.47;;;6.93;;
18503;SDS011;9381;54.244;10.074;2022-08-07T03:00:25;11.27;;;8.23;;
18503;SDS011;9381;54.244;10.074;2022-08-07T03:05:28;8.83;;;7.17;;
18503;SDS011;9381;54.244;10.074;2022-08-07T03:10:28;10.17;;;7.50;;
18503;SDS011;9381;54.244;10.074;2022-08-07T03:15:30;10.60;;;7.77;;
18503;SDS011;9381;54.244;10.074;2022-08-07T03:20:31;9.43;;;7.37;;
18503;SDS011;9381;54.244;10.074;2022-08-07T03:25:32;11.50;;;8.20;;
18503;SDS011;9381;54.244;10.074;2022-08-07T03:30:34;11.83;;;8.43;;
18503;SDS011;9381;54.244;10.074;2022-08-07T03:35:35;11.90;;;9.17;;
18503;SDS011;9381;54.244;10.074;2022-08-07T03:40:38;11.93;;;9.40;;
18503;SDS011;9381;54.244;10.074;2022-08-07T03:45:38;13.00;;;8.63;;
18503;SDS011;9381;54.244;10.074;2022-08-07T03:50:39;13.67;;;8.80;;
18503;SDS011;9381;54.244;10.074;2022-08-07T03:55:41;12.90;;;8.87;;
18503;SDS011;9381;54.244;10.074;2022-08-07T04:00:42;11.60;;;8.90;;
18503;SDS011;9381;54.244;10.074;2022-08-07T04:05:45;10.63;;;8.30;;
18503;SDS011;9381;54.244;10.074;2022-08-07T04:10:46;12.05;;;8.45;;
18503;SDS011;9381;54.244;10.074;2022-08-07T04:15:47;12.73;;;8.83;;
18503;SDS011;9381;54.244;10.074;2022-08-07T04:20:48;10.40;;;8.77;;
18503;SDS011;9381;54.244;10.074;2022-08-07T04:25:48;14.73;;;9.37;;
18503;SDS011;9381;54.244;10.074;2022-08-07T04:30:50;17.40;;;9.70;;
18503;SDS011;9381;54.244;10.074;2022-08-07T04:35:50;13.73;;;9.47;;
18503;SDS011;9381;54.244;10.074;2022-08-07T04:40:51;14.47;;;9.93;;
18503;SDS011;9381;54.244;10.074;2022-08-07T04:56:45;16.23;;;10.40;;
18503;SDS011;9381;54.244;10.074;2022-08-07T05:02:00;17.10;;;10.90;;
18503;SDS011;9381;54.244;10.074;2022-08-07T05:07:17;15.20;;;10.97;;
18503;SDS011;9381;54.244;10.074;2022-08-07T05:12:22;15.43;;;11.03;;
18503;SDS011;9381;54.244;10.074;2022-08-07T05:17:29;17.33;;;11.20;;
18503;SDS011;9381;54.244;10.074;2022-08-07T05:22:31;17.43;;;11.77;;
18503;SDS011;9381;54.244;10.074;2022-08-07T05:27:35;17.47;;;12.47;;
18503;SDS011;9381;54.244;10.074;2022-08-07T05:32:37;20.40;;;12.30;;
18503;SDS011;9381;54.244;10.074;2022-08-07T05:37:40;18.67;;;12.80;;
18503;SDS011;9381;54.244;10.074;2022-08-07T05:42:41;19.27;;;12.53;;
18503;SDS011;9381;54.244;10.074;2022-08-07T05:47:42;17.87;;;12.00;;
18503;SDS011;9381;54.244;10.074;2022-08-07T05:52:42;17.33;;;11.75;;
18503;SDS011;9381;54.244;10.074;2022-08-07T05:57:42;18.07;;;10.87;;
18503;SDS011;9381;54.244;10.074;2022-08-07T06:02:46;17.30;;;11.30;;
18503;SDS011;9381;54.244;10.074;2022-08-07T06:07:49;13.93;;;10.73;;
18503;SDS011;9381;54.244;10.074;2022-08-07T06:12:50;17.17;;;11.47;;
18503;SDS011;9381;54.244;10.074;2022-08-07T06:17:50;15.77;;;11.53;;
18503;SDS011;9381;54.244;10.074;2022-08-07T06:22:51;15.73;;;10.43;;
18503;SDS011;9381;54.244;10.074;2022-08-07T06:28:06;15.73;;;11.20;;
18503;SDS011;9381;54.244;10.074;2022-08-07T06:33:08;14.00;;;10.70;;
18503;SDS011;9381;54.244;10.074;2022-08-07T06:38:09;11.40;;;9.43;;
18503;SDS011;9381;54.244;10.074;2022-08-07T06:43:09;13.73;;;9.57;;
18503;SDS011;9381;54.244;10.074;2022-08-07T06:48:11;12.13;;;8.87;;
18503;SDS011;9381;54.244;10.074;2022-08-07T06:53:12;11.88;;;7.82;;
18503;SDS011;9381;54.244;10.074;2022-08-07T06:58:14;9.47;;;7.97;;
18503;SDS011;9381;54.244;10.074;2022-08-07T07:03:15;10.27;;;7.70;;
18503;SDS011;9381;54.244;10.074;2022-08-07T07:08:16;9.27;;;6.70;;
18503;SDS011;9381;54.244;10.074;2022-08-07T07:13:18;12.93;;;7.87;;
18503;SDS011;9381;54.244;10.074;2022-08-07T07:18:29;9.97;;;7.93;;
18503;SDS011;9381;54.244;10.074;2022-08-07T07:23:35;10.73;;;7.90;;
18503;SDS011;9381;54.244;10.074;2022-08-07T07:28:40;11.00;;;7.77;;
18503;SDS011;9381;54.244;10.074;2022-08-07T07:33:53;9.73;;;7.33;;
18503;SDS011;9381;54.244;10.074;2022-08-07T07:38:57;9.50;;;7.83;;
18503;SDS011;9381;54.244;10.074;2022-08-07T07:44:00;10.87;;;7.80;;
18503;SDS011;9381;54.244;10.074;2022-08-07T07:49:02;9.63;;;6.90;;
18503;SDS011;9381;54.244;10.074;2022-08-07T07:54:04;8.00;;;6.80;;
18503;SDS011;9381;54.244;10.074;2022-08-07T07:59:07;8.87;;;6.73;;
18503;SDS011;9381;54.244;10.074;2022-08-07T08:04:09;9.40;;;6.77;;
18503;SDS011;9381;54.244;10.074;2022-08-07T08:09:11;6.80;;;5.17;;
18503;SDS011;9381;54.244;10.074;2022-08-07T08:14:15;11.70;;;5.63;;
18503;SDS011;9381;54.244;10.074;2022-08-07T08:19:16;8.87;;;5.83;;
18503;SDS011;9381;54.244;10.074;2022-08-07T08:24:22;7.40;;;6.03;;
18503;SDS011;9381;54.244;10.074;2022-08-07T08:34:56;8.03;;;5.63;;
18503;SDS011;9381;54.244;10.074;2022-08-07T08:39:58;6.87;;;5.30;;
18503;SDS011;9381;54.244;10.074;2022-08-07T08:50:44;8.13;;;6.17;;
18503;SDS011;9381;54.244;10.074;2022-08-07T08:55:49;6.27;;;5.63;;
18503;SDS011;9381;54.244;10.074;2022-08-07T09:11:44;8.50;;;5.00;;
18503;SDS011;9381;54.244;10.074;2022-08-07T09:16:56;5.67;;;5.07;;
18503;SDS011;9381;54.244;10.074;2022-08-07T09:32:32;6.07;;;5.47;;
18503;SDS011;9381;54.244;10.074;2022-08-07T09:48:24;6.83;;;5.27;;
18503;SDS011;9381;54.244;10.074;2022-08-07T09:53:34;7.43;;;5.97;;
18503;SDS011;9381;54.244;10.074;2022-08-07T09:58:44;6.63;;;5.80;;
18503;SDS011;9381;54.244;10.074;2022-08-07T10:36:47;6.47;;;5.37;;
18503;SDS011;9381;54.244;10.074;2022-08-07T10:42:21;5.23;;;4.60;;
18503;SDS011;9381;54.244;10.074;2022-08-07T10:47:38;4.53;;;4.13;;
18503;SDS011;9381;54.244;10.074;2022-08-07T10:58:04;5.70;;;5.10;;
18503;SDS011;9381;54.244;10.074;2022-08-07T11:03:16;6.13;;;5.53;;
18503;SDS011;9381;54.244;10.074;2022-08-07T11:08:36;9.03;;;5.50;;
18503;SDS011;9381;54.244;10.074;2022-08-07T11:19:03;9.13;;;6.47;;
18503;SDS011;9381;54.244;10.074;2022-08-07T11:24:23;6.27;;;5.47;;
18503;SDS011;9381;54.244;10.074;2022-08-07T11:29:32;8.60;;;5.93;;
18503;SDS011;9381;54.244;10.074;2022-08-07T11:34:42;8.83;;;6.77;;
18503;SDS011;9381;54.244;10.074;2022-08-07T11:45:20;8.10;;;5.93;;
18503;SDS011;9381;54.244;10.074;2022-08-07T11:50:43;7.77;;;5.23;;
18503;SDS011;9381;54.244;10.074;2022-08-07T11:56:02;8.13;;;5.60;;
18503;SDS011;9381;54.244;10.074;2022-08-07T12:07:00;5.17;;;4.50;;
18503;SDS011;9381;54.244;10.074;2022-08-07T12:12:09;5.63;;;4.97;;
18503;SDS011;9381;54.244;10.074;2022-08-07T12:17:13;6.10;;;4.53;;
18503;SDS011;9381;54.244;10.074;2022-08-07T12:23:10;8.90;;;5.10;;
18503;SDS011;9381;54.244;10.074;2022-08-07T12:27:47;5.17;;;4.30;;
18503;SDS011;9381;54.244;10.074;2022-08-07T12:38:21;7.77;;;5.03;;
18503;SDS011;9381;54.244;10.074;2022-08-07T12:43:24;4.83;;;4.43;;
18503;SDS011;9381;54.244;10.074;2022-08-07T12:59:00;5.23;;;4.40;;
18503;SDS011;9381;54.244;10.074;2022-08-07T13:20:24;4.70;;;4.30;;
18503;SDS011;9381;54.244;10.074;2022-08-07T13:25:39;4.53;;;4.10;;
18503;SDS011;9381;54.244;10.074;2022-08-07T13:30:49;5.40;;;4.30;;
18503;SDS011;9381;54.244;10.074;2022-08-07T13:35:55;5.00;;;4.47;;
18503;SDS011;9381;54.244;10.074;2022-08-07T13:41:05;4.53;;;4.00;;
18503;SDS011;9381;54.244;10.074;2022-08-07T13:46:08;7.40;;;4.50;;
18503;SDS011;9381;54.244;10.074;2022-08-07T13:51:12;5.50;;;4.53;;
18503;SDS011;9381;54.244;10.074;2022-08-07T13:56:19;5.80;;;3.93;;
18503;SDS011;9381;54.244;10.074;2022-08-07T14:01:23;5.30;;;4.20;;
18503;SDS011;9381;54.244;10.074;2022-08-07T14:06:29;6.27;;;4.70;;
18503;SDS011;9381;54.244;10.074;2022-08-07T14:11:35;6.97;;;4.63;;
18503;SDS011;9381;54.244;10.074;2022-08-07T14:16:42;6.07;;;4.93;;
18503;SDS011;9381;54.244;10.074;2022-08-07T14:21:46;7.40;;;4.97;;
18503;SDS011;9381;54.244;10.074;2022-08-07T14:27:11;6.10;;;4.30;;
18503;SDS011;9381;54.244;10.074;2022-08-07T14:32:12;5.53;;;4.13;;
18503;SDS011;9381;54.244;10.074;2022-08-07T14:37:17;5.20;;;4.70;;
18503;SDS011;9381;54.244;10.074;2022-08-07T14:42:20;6.80;;;4.00;;
18503;SDS011;9381;54.244;10.074;2022-08-07T14:47:23;5.03;;;4.17;;
18503;SDS011;9381;54.244;10.074;2022-08-07T14:52:29;5.40;;;4.47;;
18503;SDS011;9381;54.244;10.074;2022-08-07T14:57:32;3.77;;;3.40;;
18503;SDS011;9381;54.244;10.074;2022-08-07T15:02:35;5.87;;;3.73;;
18503;SDS011;9381;54.244;10.074;2022-08-07T15:07:36;4.83;;;4.00;;
18503;SDS011;9381;54.244;10.074;2022-08-07T15:12:37;4.63;;;3.40;;
18503;SDS011;9381;54.244;10.074;2022-08-07T15:17:40;5.90;;;3.30;;
18503;SDS011;9381;54.244;10.074;2022-08-07T15:22:44;6.13;;;3.80;;
18503;SDS011;9381;54.244;10.074;2022-08-07T15:27:47;4.93;;;3.20;;
18503;SDS011;9381;54.244;10.074;2022-08-07T15:32:50;5.00;;;3.00;;
18503;SDS011;9381;54.244;10.074;2022-08-07T15:37:52;4.50;;;3.60;;
18503;SDS011;9381;54.244;10.074;2022-08-07T15:42:57;6.40;;;4.10;;
18503;SDS011;9381;54.244;10.074;2022-08-07T15:48:12;7.90;;;3.93;;
18503;SDS011;9381;54.244;10.074;2022-08-07T15:53:17;4.40;;;3.53;;
18503;SDS011;9381;54.244;10.074;2022-08-07T16:03:51;6.53;;;3.30;;
18503;SDS011;9381;54.244;10.074;2022-08-07T16:08:57;4.70;;;2.97;;
18503;SDS011;9381;54.244;10.074;2022-08-07T16:14:06;3.47;;;3.17;;
18503;SDS011;9381;54.244;10.074;2022-08-07T16:35:57;3.03;;;2.73;;
18503;SDS011;9381;54.244;10.074;2022-08-07T17:02:33;4.63;;;2.63;;
18503;SDS011;9381;54.244;10.074;2022-08-07T17:07:45;3.57;;;2.83;;
18503;SDS011;9381;54.244;10.074;2022-08-07T17:13:24;3.53;;;2.60;;
18503;SDS011;9381;54.244;10.074;2022-08-07T17:24:15;2.87;;;2.57;;
18503;SDS011;9381;54.244;10.074;2022-08-07T17:29:24;4.23;;;2.10;;
18503;SDS011;9381;54.244;10.074;2022-08-07T17:34:34;3.77;;;2.27;;
18503;SDS011;9381;54.244;10.074;2022-08-07T17:39:45;4.83;;;2.43;;
18503;SDS011;9381;54.244;10.074;2022-08-07T17:44:55;3.33;;;2.30;;
18503;SDS011;9381;54.244;10.074;2022-08-07T17:50:00;4.43;;;2.90;;
18503;SDS011;9381;54.244;10.074;2022-08-07T17:55:10;4.37;;;2.80;;
18503;SDS011;9381;54.244;10.074;2022-08-07T18:00:19;2.57;;;2.30;;
18503;SDS011;9381;54.244;10.074;2022-08-07T18:10:53;3.60;;;2.47;;
18503;SDS011;9381;54.244;10.074;2022-08-07T18:16:11;2.53;;;2.33;;
18503;SDS011;9381;54.244;10.074;2022-08-07T18:21:27;2.87;;;2.60;;
18503;SDS011;9381;54.244;10.074;2022-08-07T18:37:23;2.77;;;2.50;;
18503;SDS011;9381;54.244;10.074;2022-08-07T18:48:01;3.70;;;2.60;;
18503;SDS011;9381;54.244;10.074;2022-08-07T19:04:08;3.37;;;2.43;;
18503;SDS011;9381;54.244;10.074;2022-08-07T19:09:15;3.03;;;2.43;;
18503;SDS011;9381;54.244;10.074;2022-08-07T19:14:22;4.47;;;2.90;;
18503;SDS011;9381;54.244;10.074;2022-08-07T19:25:01;4.37;;;2.90;;
18503;SDS011;9381;54.244;10.074;2022-08-07T19:30:07;3.40;;;2.80;;
18503;SDS011;9381;54.244;10.074;2022-08-07T19:35:17;2.93;;;2.63;;
18503;SDS011;9381;54.244;10.074;2022-08-07T19:40:21;4.83;;;3.37;;
18503;SDS011;9381;54.244;10.074;2022-08-07T19:45:26;4.03;;;3.23;;
18503;SDS011;9381;54.244;10.074;2022-08-07T19:50:28;4.47;;;3.10;;
18503;SDS011;9381;54.244;10.074;2022-08-07T19:55:28;4.83;;;3.57;;
18503;SDS011;9381;54.244;10.074;2022-08-07T20:00:29;3.33;;;3.00;;
18503;SDS011;9381;54.244;10.074;2022-08-07T20:05:33;5.57;;;3.10;;
18503;SDS011;9381;54.244;10.074;2022-08-07T20:10:37;4.30;;;3.30;;
18503;SDS011;9381;54.244;10.074;2022-08-07T20:15:39;4.07;;;3.10;;
18503;SDS011;9381;54.244;10.074;2022-08-07T20:20:41;3.70;;;3.40;;
18503;SDS011;9381;54.244;10.074;2022-08-07T20:25:42;4.03;;;3.37;;
18503;SDS011;9381;54.244;10.074;2022-08-07T20:30:50;4.40;;;3.33;;
18503;SDS011;9381;54.244;10.074;2022-08-07T20:35:51;4.23;;;3.53;;
18503;SDS011;9381;54.244;10.074;2022-08-07T20:40:54;4.07;;;3.20;;
18503;SDS011;9381;54.244;10.074;2022-08-07T20:46:01;4.43;;;3.67;;
18503;SDS011;9381;54.244;10.074;2022-08-07T20:51:03;4.47;;;3.73;;
18503;SDS011;9381;54.244;10.074;2022-08-07T20:56:06;3.37;;;3.07;;
18503;SDS011;9381;54.244;10.074;2022-08-07T21:01:10;4.80;;;3.30;;
18503;SDS011;9381;54.244;10.074;2022-08-07T21:06:12;3.37;;;3.03;;
18503;SDS011;9381;54.244;10.074;2022-08-07T21:11:16;4.13;;;3.20;;
18503;SDS011;9381;54.244;10.074;2022-08-07T21:16:22;4.00;;;3.60;;
18503;SDS011;9381;54.244;10.074;2022-08-07T21:21:28;4.00;;;3.37;;
18503;SDS011;9381;54.244;10.074;2022-08-07T21:32:04;4.73;;;3.30;;
18503;SDS011;9381;54.244;10.074;2022-08-07T21:37:12;4.87;;;4.37;;
18503;SDS011;9381;54.244;10.074;2022-08-07T22:04:22;4.03;;;3.63;;
18503;SDS011;9381;54.244;10.074;2022-08-07T22:09:10;3.93;;;3.40;;
18503;SDS011;9381;54.244;10.074;2022-08-07T22:14:11;4.93;;;3.70;;
18503;SDS011;9381;54.244;10.074;2022-08-07T22:19:16;4.32;;;3.80;;
18503;SDS011;9381;54.244;10.074;2022-08-07T22:24:25;5.73;;;3.93;;
18503;SDS011;9381;54.244;10.074;2022-08-07T22:29:39;5.03;;;3.97;;
18503;SDS011;9381;54.244;10.074;2022-08-07T22:34:54;4.40;;;3.97;;
18503;SDS011;9381;54.244;10.074;2022-08-07T22:45:17;4.33;;;3.93;;
18503;SDS011;9381;54.244;10.074;2022-08-07T22:56:06;4.47;;;4.07;;
18503;SDS011;9381;54.244;10.074;2022-08-07T23:06:52;4.93;;;4.30;;
18503;SDS011;9381;54.244;10.074;2022-08-07T23:23:31;4.70;;;3.90;;
18503;SDS011;9381;54.244;10.074;2022-08-07T23:39:32;6.07;;;3.90;;
18503;SDS011;9381;54.244;10.074;2022-08-07T23:50:34;4.03;;;3.63;;
